createdAt,value
2023-05-21T00:01:23.872Z,34.45
2023-05-21T00:03:27.225Z,34.38
2023-05-21T00:05:28.766Z,34.40
2023-05-21T00:07:31.730Z,34.60
2023-05-21T00:09:33.300Z,34.43
2023-05-21T00:11:34.795Z,34.56
2023-05-21T00:13:36.334Z,34.31
2023-05-21T00:15:38.306Z,34.42
2023-05-21T00:17:40.096Z,34.35
2023-05-21T00:19:41.728Z,34.60
2023-05-21T00:21:45.940Z,34.37
2023-05-21T00:23:48.228Z,34.63
2023-05-21T00:25:50.497Z,34.58
2023-05-21T00:27:52.083Z,34.51
2023-05-21T00:29:53.626Z,34.46
2023-05-21T00:31:55.899Z,34.64
2023-05-21T00:33:57.793Z,34.31
2023-05-21T00:35:59.381Z,34.58
2023-05-21T00:38:00.961Z,34.37
2023-05-21T00:40:05.294Z,34.72
2023-05-21T00:42:07.134Z,34.26
2023-05-21T00:44:08.919Z,34.54
2023-05-21T00:46:12.132Z,34.56
2023-05-21T00:48:14.920Z,34.68
2023-05-21T00:50:16.430Z,34.24
2023-05-21T00:52:21.503Z,34.62
2023-05-21T00:54:23.694Z,34.31
2023-05-21T00:56:27.191Z,34.41
2023-05-21T00:58:29.241Z,34.66
2023-05-21T01:00:34.880Z,34.41
2023-05-21T01:02:37.399Z,34.74
2023-05-21T01:04:39.219Z,34.33
2023-05-21T01:06:42.572Z,34.71
2023-05-21T01:08:44.310Z,34.78
2023-05-21T01:10:46.009Z,34.56
2023-05-21T01:12:47.921Z,34.71
2023-05-21T01:14:49.920Z,34.72
2023-05-21T01:16:52.425Z,34.58
2023-05-21T01:18:54.144Z,34.75
2023-05-21T01:20:55.754Z,34.70
2023-05-21T01:22:57.348Z,34.74
2023-05-21T01:24:58.827Z,34.71
2023-05-21T01:27:01.716Z,34.50
2023-05-21T01:29:03.294Z,34.73
2023-05-21T01:31:11.771Z,34.73
2023-05-21T01:33:16.231Z,34.58
2023-05-21T01:35:21.850Z,34.55
2023-05-21T01:37:41.867Z,34.69
2023-05-21T01:39:46.565Z,34.81
2023-05-21T01:41:50.478Z,34.65
2023-05-21T01:43:53.820Z,34.74
2023-05-21T01:45:56.576Z,34.60
2023-05-21T01:48:01.307Z,34.96
2023-05-21T01:50:03.790Z,35.01
2023-05-21T01:52:05.455Z,34.83
2023-05-21T01:54:06.957Z,34.93
2023-05-21T01:56:08.574Z,34.80
2023-05-21T01:58:10.605Z,34.59
2023-05-21T02:00:12.668Z,34.71
2023-05-21T02:02:14.531Z,34.80
2023-05-21T02:04:16.020Z,34.89
2023-05-21T02:06:17.664Z,34.93
2023-05-21T02:08:20.053Z,34.75
2023-05-21T02:10:21.596Z,34.78
2023-05-21T02:12:23.072Z,34.75
2023-05-21T02:14:25.388Z,34.83
2023-05-21T02:16:26.858Z,34.94
2023-05-21T02:18:29.223Z,35.21
2023-05-21T02:20:31.395Z,34.77
2023-05-21T02:22:32.986Z,34.71
2023-05-21T02:24:34.544Z,34.80
2023-05-21T02:26:36.131Z,34.81
2023-05-21T02:28:37.570Z,34.70
2023-05-21T02:30:38.988Z,35.06
2023-05-21T02:32:42.854Z,34.95
2023-05-21T02:34:47.240Z,35.01
2023-05-21T02:36:52.247Z,35.01
2023-05-21T02:38:53.728Z,35.08
2023-05-21T02:40:55.714Z,35.08
2023-05-21T02:42:57.261Z,35.05
2023-05-21T02:44:58.705Z,34.78
2023-05-21T02:47:00.162Z,34.91
2023-05-21T02:49:01.851Z,35.22
2023-05-21T02:51:03.421Z,35.17
2023-05-21T02:53:04.981Z,35.10
2023-05-21T02:55:07.485Z,34.75
2023-05-21T02:57:08.946Z,34.68
2023-05-21T02:59:10.524Z,34.93
2023-05-21T03:01:12.136Z,35.16
2023-05-21T03:03:13.736Z,35.15
2023-05-21T03:05:15.315Z,35.25
2023-05-21T03:07:20.302Z,35.26
2023-05-21T03:09:22.379Z,35.23
2023-05-21T03:11:23.936Z,35.31
2023-05-21T03:13:25.586Z,35.20
2023-05-21T03:15:27.145Z,35.03
2023-05-21T03:17:28.709Z,35.33
2023-05-21T03:19:34.416Z,35.08
2023-05-21T03:21:36.245Z,35.39
2023-05-21T03:23:37.995Z,35.04
2023-05-21T03:25:39.805Z,35.30
2023-05-21T03:27:41.257Z,35.36
2023-05-21T03:29:44.637Z,35.48
2023-05-21T03:31:46.198Z,35.49
2023-05-21T03:33:47.826Z,35.44
2023-05-21T03:35:49.487Z,35.53
2023-05-21T03:37:51.130Z,35.18
2023-05-21T03:39:52.675Z,35.11
2023-05-21T03:41:54.380Z,35.31
2023-05-21T03:43:55.854Z,35.44
2023-05-21T03:45:57.463Z,35.21
2023-05-21T03:48:01.289Z,35.29
2023-05-21T03:50:03.269Z,35.49
2023-05-21T03:52:04.976Z,35.46
2023-05-21T03:54:06.487Z,35.51
2023-05-21T03:56:08.352Z,35.48
2023-05-21T03:58:10.843Z,35.40
2023-05-21T04:00:12.636Z,35.50
2023-05-21T04:02:14.342Z,35.51
2023-05-21T04:04:16.058Z,35.19
2023-05-21T04:06:17.654Z,35.26
2023-05-21T04:08:19.628Z,35.50
2023-05-21T04:10:22.074Z,35.37
2023-05-21T04:12:23.739Z,35.21
2023-05-21T04:14:25.212Z,35.02
2023-05-21T04:16:26.856Z,35.28
2023-05-21T04:18:28.326Z,35.28
2023-05-21T04:20:29.819Z,35.04
2023-05-21T04:22:31.656Z,35.03
2023-05-21T04:24:33.119Z,35.30
2023-05-21T04:26:35.289Z,35.37
2023-05-21T04:28:36.858Z,35.45
2023-05-21T04:30:38.350Z,35.29
2023-05-21T04:32:39.915Z,35.43
2023-05-21T04:34:42.050Z,35.27
2023-05-21T04:36:45.301Z,35.32
2023-05-21T04:38:46.790Z,35.27
2023-05-21T04:40:51.806Z,35.46
2023-05-21T04:42:53.678Z,35.37
2023-05-21T04:44:55.539Z,35.41
2023-05-21T04:46:57.612Z,35.30
2023-05-21T04:49:03.050Z,35.37
2023-05-21T04:51:06.365Z,35.26
2023-05-21T04:53:07.855Z,35.61
2023-05-21T04:55:09.440Z,35.25
2023-05-21T04:57:11.223Z,35.51
2023-05-21T04:59:13.307Z,35.34
2023-05-21T05:01:15.205Z,35.63
2023-05-21T05:03:16.775Z,35.52
2023-05-21T05:05:18.486Z,35.42
2023-05-21T05:07:19.949Z,35.24
2023-05-21T05:09:24.055Z,35.49
2023-05-21T05:11:26.556Z,35.31
2023-05-21T05:13:28.095Z,35.47
2023-05-21T05:15:29.637Z,35.36
2023-05-21T05:17:31.929Z,35.29
2023-05-21T05:19:35.094Z,35.27
2023-05-21T05:21:37.912Z,35.48
2023-05-21T05:23:39.413Z,35.20
2023-05-21T05:25:41.020Z,35.46
2023-05-21T05:27:42.594Z,35.25
2023-05-21T05:29:45.190Z,35.58
2023-05-21T05:31:46.692Z,35.16
2023-05-21T05:33:48.386Z,35.25
2023-05-21T05:35:50.037Z,35.26
2023-05-21T05:37:51.551Z,35.38
2023-05-21T05:39:52.978Z,35.53
2023-05-21T05:41:54.573Z,35.38
2023-05-21T05:43:56.142Z,35.13
2023-05-21T05:45:57.740Z,35.58
2023-05-21T05:47:59.282Z,35.54
2023-05-21T05:50:00.921Z,35.54
2023-05-21T05:52:02.610Z,35.52
2023-05-21T05:54:04.129Z,35.45
2023-05-21T05:56:06.913Z,35.56
2023-05-21T05:58:08.374Z,35.27
2023-05-21T06:00:10.630Z,35.38
2023-05-21T06:02:12.339Z,35.29
2023-05-21T06:04:13.781Z,35.62
2023-05-21T06:06:15.522Z,35.55
2023-05-21T06:08:17.274Z,35.71
2023-05-21T06:10:20.612Z,35.55
2023-05-21T06:12:22.236Z,35.82
2023-05-21T06:14:23.706Z,35.61
2023-05-21T06:16:25.190Z,35.66
2023-05-21T06:18:27.731Z,35.71
2023-05-21T06:20:29.975Z,35.84
2023-05-21T06:22:31.492Z,35.74
2023-05-21T06:24:32.989Z,35.61
2023-05-21T06:26:34.521Z,35.93
2023-05-21T06:28:36.332Z,35.80
2023-05-21T06:30:37.891Z,35.97
2023-05-21T06:32:39.579Z,35.85
2023-05-21T06:34:41.106Z,36.00
2023-05-21T06:36:42.601Z,35.90
2023-05-21T06:38:44.180Z,36.08
2023-05-21T06:40:47.448Z,35.81
2023-05-21T06:42:49.051Z,35.96
2023-05-21T06:44:50.834Z,36.11
2023-05-21T06:46:52.318Z,35.76
2023-05-21T06:48:53.881Z,35.95
2023-05-21T06:50:55.573Z,36.06
2023-05-21T06:52:57.377Z,35.65
2023-05-21T06:54:58.889Z,35.69
2023-05-21T06:57:00.539Z,36.10
2023-05-21T06:59:02.081Z,35.92
2023-05-21T07:01:03.792Z,36.02
2023-05-21T07:03:05.817Z,35.81
2023-05-21T07:05:07.562Z,36.28
2023-05-21T07:07:09.570Z,35.90
2023-05-21T07:09:11.257Z,35.82
2023-05-21T07:11:12.716Z,36.19
2023-05-21T07:13:14.258Z,36.03
2023-05-21T07:15:15.780Z,36.01
2023-05-21T07:17:17.246Z,36.26
2023-05-21T07:19:18.843Z,36.43
2023-05-21T07:21:20.589Z,36.24
2023-05-21T07:23:22.320Z,36.26
2023-05-21T07:25:23.878Z,36.34
2023-05-21T07:27:26.225Z,36.21
2023-05-21T07:29:27.870Z,36.50
2023-05-21T07:31:29.442Z,36.39
2023-05-21T07:33:31.029Z,36.21
2023-05-21T07:35:32.607Z,36.37
2023-05-21T07:37:34.246Z,36.45
2023-05-21T07:39:35.834Z,36.26
2023-05-21T07:41:37.390Z,36.27
2023-05-21T07:43:39.033Z,36.25
2023-05-21T07:45:40.558Z,36.49
2023-05-21T07:47:42.641Z,36.25
2023-05-21T07:49:44.278Z,36.62
2023-05-21T07:51:46.140Z,36.54
2023-05-21T07:53:47.663Z,36.55
2023-05-21T07:55:49.168Z,36.62
2023-05-21T07:57:52.320Z,36.67
2023-05-21T07:59:53.890Z,36.91
2023-05-21T08:01:55.510Z,36.78
2023-05-21T08:03:57.198Z,36.60
2023-05-21T08:05:58.754Z,36.70
2023-05-21T08:08:00.673Z,36.62
2023-05-21T08:10:03.036Z,36.58
2023-05-21T08:12:04.800Z,36.60
2023-05-21T08:14:06.615Z,36.47
2023-05-21T08:16:08.206Z,36.93
2023-05-21T08:18:10.075Z,36.64
2023-05-21T08:20:13.400Z,36.55
2023-05-21T08:22:14.943Z,36.86
2023-05-21T08:24:16.925Z,36.78
2023-05-21T08:26:18.525Z,36.93
2023-05-21T08:28:21.907Z,36.84
2023-05-21T08:30:23.507Z,36.80
2023-05-21T08:32:25.086Z,36.56
2023-05-21T08:34:26.755Z,36.75
2023-05-21T08:36:28.301Z,36.72
2023-05-21T08:38:30.381Z,36.48
2023-05-21T08:40:32.168Z,36.61
2023-05-21T08:42:40.470Z,36.52
2023-05-21T08:44:44.419Z,36.22
2023-05-21T08:46:49.635Z,36.64
2023-05-21T08:48:55.789Z,36.50
2023-05-21T08:50:58.805Z,36.48
2023-05-21T08:53:02.027Z,36.45
2023-05-21T08:55:06.272Z,36.33
2023-05-21T08:57:08.200Z,36.17
2023-05-21T08:59:09.732Z,36.40
2023-05-21T09:01:12.431Z,36.22
2023-05-21T09:03:14.900Z,36.08
2023-05-21T09:05:16.794Z,35.85
2023-05-21T09:07:18.580Z,35.89
2023-05-21T09:09:33.462Z,36.20
2023-05-21T09:11:34.989Z,35.97
2023-05-21T09:13:38.941Z,36.01
2023-05-21T09:15:41.817Z,36.06
2023-05-21T09:17:46.413Z,35.86
2023-05-21T09:20:13.362Z,35.88
2023-05-21T09:22:15.444Z,36.16
2023-05-21T09:24:17.440Z,36.22
2023-05-21T09:26:21.601Z,36.20
2023-05-21T09:28:23.203Z,36.22
2023-05-21T09:30:34.120Z,36.37
2023-05-21T09:32:37.740Z,36.37
2023-05-21T09:34:39.421Z,36.50
2023-05-21T09:36:40.955Z,36.35
2023-05-21T09:38:42.642Z,36.31
2023-05-21T09:40:46.379Z,36.16
2023-05-21T09:42:49.327Z,36.46
2023-05-21T09:44:51.432Z,36.48
2023-05-21T09:46:57.732Z,36.52
2023-05-21T09:48:59.435Z,36.38
2023-05-21T09:51:08.235Z,36.47
2023-05-21T09:53:14.262Z,36.63
2023-05-21T09:55:16.188Z,36.63
2023-05-21T09:57:22.923Z,36.32
2023-05-21T09:59:25.373Z,36.34
2023-05-21T10:01:27.257Z,36.43
2023-05-21T10:03:29.836Z,36.33
2023-05-21T10:05:31.380Z,36.41
2023-05-21T10:07:33.815Z,36.49
2023-05-21T10:09:35.504Z,36.74
2023-05-21T10:11:37.515Z,36.60
2023-05-21T10:13:41.549Z,36.51
2023-05-21T10:15:44.919Z,36.50
2023-05-21T10:17:47.381Z,36.58
2023-05-21T10:19:50.156Z,36.63
2023-05-21T10:21:55.174Z,36.63
2023-05-21T10:23:57.846Z,36.62
2023-05-21T10:26:00.012Z,36.38
2023-05-21T10:28:01.647Z,36.33
2023-05-21T10:30:04.684Z,36.20
2023-05-21T10:32:06.720Z,36.30
2023-05-21T10:34:08.763Z,36.63
2023-05-21T10:36:10.449Z,36.62
2023-05-21T10:38:13.309Z,36.23
2023-05-21T10:40:14.866Z,36.56
2023-05-21T10:42:31.565Z,36.59
2023-05-21T10:44:42.043Z,36.57
2023-05-21T10:46:49.458Z,36.66
2023-05-21T10:48:54.045Z,36.61
2023-05-21T10:50:55.563Z,36.68
2023-05-21T10:53:12.414Z,36.48
2023-05-21T10:55:23.368Z,36.57
2023-05-21T10:57:27.739Z,36.46
2023-05-21T10:59:36.400Z,36.03
2023-05-21T11:01:39.472Z,36.10
2023-05-21T11:03:41.267Z,36.43
2023-05-21T11:05:56.266Z,36.33
2023-05-21T11:07:57.855Z,36.23
2023-05-21T11:10:17.794Z,36.34
2023-05-21T11:12:23.052Z,36.23
2023-05-21T11:14:28.387Z,36.39
2023-05-21T11:16:31.132Z,35.99
2023-05-21T11:18:35.445Z,35.97
2023-05-21T11:20:37.069Z,36.41
2023-05-21T11:22:38.753Z,35.93
2023-05-21T11:24:41.366Z,35.90
2023-05-21T11:26:48.852Z,36.22
2023-05-21T11:28:50.841Z,36.02
2023-05-21T11:31:11.228Z,36.07
2023-05-21T11:33:14.074Z,36.24
2023-05-21T11:35:15.987Z,36.20
2023-05-21T11:37:23.130Z,35.93
2023-05-21T11:39:25.434Z,35.95
2023-05-21T11:41:26.972Z,35.89
2023-05-21T11:43:28.684Z,35.96
2023-05-21T11:45:31.430Z,35.92
2023-05-21T11:47:33.011Z,35.88
2023-05-21T11:49:35.119Z,36.05
2023-05-21T11:51:36.906Z,35.77
2023-05-21T11:53:39.401Z,35.75
2023-05-21T11:55:43.496Z,35.90
2023-05-21T11:57:47.866Z,35.78
2023-05-21T11:59:53.262Z,35.80
2023-05-21T12:01:59.236Z,35.71
2023-05-21T12:04:03.529Z,35.91
2023-05-21T12:06:06.531Z,35.73
2023-05-21T12:08:08.674Z,35.74
2023-05-21T12:10:10.702Z,35.86
2023-05-21T12:12:16.454Z,36.07
2023-05-21T12:14:17.982Z,35.92
2023-05-21T12:16:20.023Z,35.72
2023-05-21T12:18:22.011Z,35.96
2023-05-21T12:20:26.158Z,35.90
2023-05-21T12:22:30.841Z,36.10
2023-05-21T12:24:32.680Z,36.03
2023-05-21T12:26:35.457Z,35.77
2023-05-21T12:28:37.524Z,35.78
2023-05-21T12:30:39.229Z,35.75
2023-05-21T12:32:43.714Z,35.86
2023-05-21T12:34:46.481Z,35.92
2023-05-21T12:36:51.071Z,35.66
2023-05-21T12:38:52.860Z,35.89
2023-05-21T12:40:54.551Z,35.54
2023-05-21T12:42:56.218Z,35.99
2023-05-21T12:44:57.917Z,35.85
2023-05-21T12:46:59.667Z,35.88
2023-05-21T12:49:01.311Z,36.01
2023-05-21T12:51:04.270Z,36.04
2023-05-21T12:53:08.944Z,36.15
2023-05-21T12:55:13.294Z,35.92
2023-05-21T12:57:18.772Z,35.96
2023-05-21T12:59:20.502Z,35.82
2023-05-21T13:01:22.709Z,35.85
2023-05-21T13:03:24.378Z,36.01
2023-05-21T13:05:25.841Z,35.94
2023-05-21T13:07:28.419Z,36.08
2023-05-21T13:09:29.926Z,35.87
2023-05-21T13:11:31.573Z,36.09
2023-05-21T13:13:33.165Z,36.04
2023-05-21T13:15:34.831Z,36.13
2023-05-21T13:17:36.812Z,35.76
2023-05-21T13:19:38.285Z,36.16
2023-05-21T13:21:39.756Z,35.80
2023-05-21T13:23:41.430Z,35.83
2023-05-21T13:25:42.971Z,36.00
2023-05-21T13:27:44.581Z,36.05
2023-05-21T13:29:46.168Z,35.89
2023-05-21T13:31:47.680Z,35.89
2023-05-21T13:33:49.186Z,35.75
2023-05-21T13:35:51.853Z,35.62
2023-05-21T13:37:53.979Z,35.82
2023-05-21T13:39:55.535Z,35.93
2023-05-21T13:41:57.105Z,35.82
2023-05-21T13:43:59.091Z,35.89
2023-05-21T13:46:00.592Z,35.92
2023-05-21T13:48:02.263Z,35.68
2023-05-21T13:50:04.540Z,36.07
2023-05-21T13:52:07.122Z,35.96
2023-05-21T13:54:08.681Z,35.90
2023-05-21T13:56:11.185Z,35.83
2023-05-21T13:58:12.697Z,35.87
2023-05-21T14:00:15.675Z,35.60
2023-05-21T14:02:17.601Z,35.77
2023-05-21T14:04:20.105Z,35.70
2023-05-21T14:06:21.669Z,35.81
2023-05-21T14:08:24.805Z,35.64
2023-05-21T14:10:26.368Z,35.51
2023-05-21T14:12:28.415Z,35.64
2023-05-21T14:14:29.917Z,35.68
2023-05-21T14:16:31.503Z,35.40
2023-05-21T14:18:32.945Z,35.54
2023-05-21T14:20:34.818Z,35.22
2023-05-21T14:22:36.396Z,35.37
2023-05-21T14:24:37.954Z,35.10
2023-05-21T14:26:42.560Z,35.06
2023-05-21T14:28:45.213Z,35.08
2023-05-21T14:30:46.734Z,35.20
2023-05-21T14:32:48.301Z,35.50
2023-05-21T14:34:49.804Z,35.56
2023-05-21T14:36:51.251Z,35.42
2023-05-21T14:38:52.742Z,35.39
2023-05-21T14:40:54.941Z,35.54
2023-05-21T14:42:56.490Z,35.81
2023-05-21T14:44:58.921Z,35.38
2023-05-21T14:47:00.552Z,35.38
2023-05-21T14:49:03.328Z,35.57
2023-05-21T14:51:04.935Z,35.52
2023-05-21T14:53:07.293Z,35.77
2023-05-21T14:55:09.132Z,35.70
2023-05-21T14:57:10.843Z,35.74
2023-05-21T14:59:12.937Z,35.36
2023-05-21T15:01:14.597Z,35.69
2023-05-21T15:03:16.270Z,35.43
2023-05-21T15:05:18.041Z,35.49
2023-05-21T15:07:19.676Z,35.51
2023-05-21T15:09:21.290Z,35.37
2023-05-21T15:11:22.807Z,35.50
2023-05-21T15:13:24.321Z,35.78
2023-05-21T15:15:25.831Z,35.84
2023-05-21T15:17:27.446Z,35.62
2023-05-21T15:19:28.977Z,35.74
2023-05-21T15:21:30.981Z,35.81
2023-05-21T15:23:32.527Z,35.99
2023-05-21T15:25:34.096Z,35.67
2023-05-21T15:27:35.603Z,35.95
2023-05-21T15:29:38.022Z,35.67
2023-05-21T15:31:39.563Z,35.99
2023-05-21T15:33:41.031Z,35.87
2023-05-21T15:35:42.891Z,36.01
2023-05-21T15:37:45.601Z,35.83
2023-05-21T15:39:48.562Z,35.77
2023-05-21T15:41:50.240Z,36.03
2023-05-21T15:43:51.745Z,35.77
2023-05-21T15:45:53.661Z,35.87
2023-05-21T15:47:55.446Z,35.92
2023-05-21T15:49:58.779Z,36.07
2023-05-21T15:52:01.294Z,36.04
2023-05-21T15:54:02.800Z,36.23
2023-05-21T15:56:04.532Z,36.13
2023-05-21T15:58:06.132Z,35.85
2023-05-21T16:00:09.658Z,35.94
2023-05-21T16:02:11.182Z,36.16
2023-05-21T16:04:13.517Z,36.11
2023-05-21T16:06:15.121Z,35.93
2023-05-21T16:08:16.832Z,36.24
2023-05-21T16:10:18.497Z,36.28
2023-05-21T16:12:20.001Z,36.18
2023-05-21T16:14:21.768Z,36.23
2023-05-21T16:16:24.823Z,36.45
2023-05-21T16:18:26.503Z,36.24
2023-05-21T16:20:30.143Z,36.44
2023-05-21T16:22:31.720Z,36.43
2023-05-21T16:24:33.240Z,36.50
2023-05-21T16:26:34.921Z,36.49
2023-05-21T16:28:37.594Z,36.29
2023-05-21T16:30:39.334Z,36.25
2023-05-21T16:32:40.999Z,36.22
2023-05-21T16:34:42.558Z,35.90
2023-05-21T16:36:44.016Z,36.27
2023-05-21T16:38:45.593Z,36.09
2023-05-21T16:40:47.357Z,36.13
2023-05-21T16:42:48.896Z,36.32
2023-05-21T16:44:50.400Z,36.26
2023-05-21T16:46:52.139Z,36.17
2023-05-21T16:48:53.610Z,36.27
2023-05-21T16:50:55.067Z,36.69
2023-05-21T16:52:56.542Z,36.42
2023-05-21T16:54:57.972Z,36.30
2023-05-21T16:56:59.462Z,36.83
2023-05-21T16:59:02.350Z,36.90
2023-05-21T17:01:04.085Z,36.90
2023-05-21T17:03:05.948Z,36.71
2023-05-21T17:05:07.800Z,36.99
2023-05-21T17:07:09.419Z,37.01
2023-05-21T17:09:11.383Z,37.01
2023-05-21T17:11:13.081Z,37.00
2023-05-21T17:13:22.037Z,36.99
2023-05-21T17:15:24.594Z,37.10
2023-05-21T17:17:26.400Z,37.22
2023-05-21T17:19:28.011Z,37.21
2023-05-21T17:21:31.654Z,37.05
2023-05-21T17:23:33.350Z,37.14
2023-05-21T17:25:35.040Z,37.02
2023-05-21T17:27:36.860Z,36.94
2023-05-21T17:29:38.360Z,36.81
2023-05-21T17:31:39.853Z,37.19
2023-05-21T17:33:41.767Z,37.21
2023-05-21T17:35:43.390Z,37.20
2023-05-21T17:37:45.287Z,37.03
2023-05-21T17:39:46.862Z,37.27
2023-05-21T17:41:48.451Z,37.21
2023-05-21T17:43:49.904Z,37.34
2023-05-21T17:45:51.401Z,37.41
2023-05-21T17:47:52.958Z,37.29
2023-05-21T17:49:54.469Z,37.47
2023-05-21T17:51:56.186Z,36.98
2023-05-21T17:53:57.798Z,37.51
2023-05-21T17:55:59.247Z,37.37
2023-05-21T17:58:00.942Z,37.17
2023-05-21T18:00:04.102Z,37.26
2023-05-21T18:02:05.656Z,37.07
2023-05-21T18:04:12.452Z,37.50
2023-05-21T18:06:14.021Z,37.04
2023-05-21T18:08:15.500Z,37.25
2023-05-21T18:10:17.029Z,37.45
2023-05-21T18:12:18.472Z,37.72
2023-05-21T18:14:19.980Z,37.36
2023-05-21T18:16:21.632Z,37.46
2023-05-21T18:18:23.401Z,37.57
2023-05-21T18:20:24.960Z,37.49
2023-05-21T18:22:26.625Z,37.59
2023-05-21T18:24:28.085Z,37.68
2023-05-21T18:26:32.612Z,37.68
2023-05-21T18:28:34.363Z,37.72
2023-05-21T18:30:36.166Z,37.85
2023-05-21T18:32:40.874Z,37.80
2023-05-21T18:34:43.854Z,37.86
2023-05-21T18:36:45.757Z,38.03
2023-05-21T18:38:48.322Z,38.02
2023-05-21T18:40:50.402Z,38.08
2023-05-21T18:42:51.985Z,38.12
2023-05-21T18:44:53.494Z,37.91
2023-05-21T18:46:56.352Z,37.96
2023-05-21T18:49:01.609Z,37.87
2023-05-21T18:51:03.268Z,37.97
2023-05-21T18:53:04.972Z,37.95
2023-05-21T18:55:06.800Z,38.20
2023-05-21T18:57:08.378Z,38.19
2023-05-21T18:59:09.887Z,38.57
2023-05-21T19:01:11.412Z,38.45
2023-05-21T19:03:12.940Z,38.58
2023-05-21T19:05:14.530Z,38.34
2023-05-21T19:07:16.281Z,38.55
2023-05-21T19:09:17.953Z,38.39
2023-05-21T19:11:19.833Z,38.70
2023-05-21T19:13:21.381Z,38.64
2023-05-21T19:15:22.939Z,38.52
2023-05-21T19:17:24.484Z,38.73
2023-05-21T19:19:26.009Z,38.72
2023-05-21T19:21:27.566Z,38.55
2023-05-21T19:23:29.555Z,38.68
2023-05-21T19:25:33.597Z,38.51
2023-05-21T19:27:35.133Z,38.52
2023-05-21T19:29:36.652Z,38.81
2023-05-21T19:31:39.036Z,38.55
2023-05-21T19:33:40.695Z,38.87
2023-05-21T19:35:43.181Z,38.88
2023-05-21T19:37:44.640Z,38.61
2023-05-21T19:39:49.599Z,38.93
2023-05-21T19:41:52.741Z,38.61
2023-05-21T19:43:54.304Z,38.56
2023-05-21T19:45:56.014Z,38.76
2023-05-21T19:47:59.052Z,38.98
2023-05-21T19:50:00.664Z,38.77
2023-05-21T19:52:02.475Z,38.76
2023-05-21T19:54:04.086Z,38.58
2023-05-21T19:56:05.813Z,38.77
2023-05-21T19:58:07.675Z,38.92
2023-05-21T20:00:10.305Z,38.92
2023-05-21T20:02:16.954Z,38.95
2023-05-21T20:04:18.665Z,38.81
2023-05-21T20:06:20.887Z,39.06
2023-05-21T20:08:22.449Z,38.94
2023-05-21T20:10:23.912Z,39.06
2023-05-21T20:12:25.488Z,39.04
2023-05-21T20:14:27.141Z,38.66
2023-05-21T20:16:29.492Z,38.92
2023-05-21T20:18:31.059Z,38.55
2023-05-21T20:20:34.750Z,38.84
2023-05-21T20:22:36.415Z,38.68
2023-05-21T20:24:37.951Z,39.07
2023-05-21T20:26:39.933Z,38.96
2023-05-21T20:28:41.515Z,38.63
2023-05-21T20:30:58.829Z,39.02
2023-05-21T20:33:03.538Z,39.04
2023-05-21T20:35:08.935Z,39.02
2023-05-21T20:37:11.303Z,38.96
2023-05-21T20:39:13.389Z,38.74
2023-05-21T20:41:14.942Z,38.59
2023-05-21T20:43:18.640Z,38.40
2023-05-21T20:45:21.116Z,38.76
2023-05-21T20:47:23.476Z,38.52
2023-05-21T20:49:25.829Z,38.84
2023-05-21T20:51:27.485Z,38.59
2023-05-21T20:53:28.990Z,38.73
2023-05-21T20:55:34.927Z,38.64
2023-05-21T20:57:37.054Z,38.57
2023-05-21T20:59:42.288Z,38.71
2023-05-21T21:01:43.789Z,38.61
2023-05-21T21:03:45.798Z,38.51
2023-05-21T21:05:47.360Z,38.54
2023-05-21T21:07:48.784Z,38.67
2023-05-21T21:09:50.530Z,38.37
2023-05-21T21:11:52.044Z,38.54
2023-05-21T21:13:53.656Z,38.40
2023-05-21T21:15:55.190Z,38.72
2023-05-21T21:17:56.788Z,38.67
2023-05-21T21:19:58.346Z,38.29
2023-05-21T21:21:59.956Z,38.40
2023-05-21T21:24:01.475Z,38.49
2023-05-21T21:26:03.032Z,38.54
2023-05-21T21:28:04.547Z,38.42
2023-05-21T21:30:07.048Z,38.47
2023-05-21T21:32:08.738Z,38.14
2023-05-21T21:34:10.315Z,38.32
2023-05-21T21:36:14.924Z,38.44
2023-05-21T21:38:16.367Z,38.51
2023-05-21T21:40:17.926Z,38.42
2023-05-21T21:42:19.520Z,38.04
2023-05-21T21:44:21.220Z,38.22
2023-05-21T21:46:22.858Z,38.16
2023-05-21T21:48:24.440Z,37.95
2023-05-21T21:50:25.935Z,38.13
2023-05-21T21:52:27.519Z,38.16
2023-05-21T21:54:29.244Z,38.02
2023-05-21T21:56:30.778Z,38.02
2023-05-21T21:58:32.332Z,37.95
2023-05-21T22:00:33.839Z,37.95
2023-05-21T22:02:35.420Z,37.89
2023-05-21T22:04:37.082Z,37.80
2023-05-21T22:06:39.072Z,37.57
2023-05-21T22:08:40.829Z,37.69
2023-05-21T22:10:42.552Z,37.72
2023-05-21T22:12:44.565Z,37.73
2023-05-21T22:14:46.329Z,37.51
2023-05-21T22:16:48.418Z,37.78
2023-05-21T22:18:50.154Z,37.64
2023-05-21T22:20:52.417Z,37.50
2023-05-21T22:22:55.407Z,37.14
2023-05-21T22:24:57.097Z,36.88
2023-05-21T22:26:58.640Z,37.36
2023-05-21T22:29:00.178Z,37.25
2023-05-21T22:31:01.885Z,37.03
2023-05-21T22:33:03.730Z,37.24
2023-05-21T22:35:05.696Z,37.23
2023-05-21T22:37:07.219Z,37.29
2023-05-21T22:39:08.930Z,36.98
2023-05-21T22:41:11.046Z,37.10
2023-05-21T22:43:12.570Z,37.22
2023-05-21T22:45:15.206Z,37.04
2023-05-21T22:47:16.660Z,37.23
2023-05-21T22:49:19.790Z,37.10
2023-05-21T22:51:21.337Z,36.91
2023-05-21T22:53:23.540Z,36.97
2023-05-21T22:55:25.053Z,36.87
2023-05-21T22:57:26.981Z,36.63
2023-05-21T22:59:28.624Z,36.57
2023-05-21T23:01:31.769Z,36.97
2023-05-21T23:03:33.369Z,37.00
2023-05-21T23:05:35.067Z,36.96
2023-05-21T23:07:36.686Z,36.77
2023-05-21T23:09:38.296Z,36.79
2023-05-21T23:11:39.809Z,36.78
2023-05-21T23:13:41.320Z,36.66
2023-05-21T23:15:43.501Z,36.44
2023-05-21T23:17:45.843Z,36.56
2023-05-21T23:19:52.361Z,36.43
2023-05-21T23:21:53.934Z,36.57
2023-05-21T23:23:55.505Z,36.48
2023-05-21T23:25:58.800Z,36.46
2023-05-21T23:28:00.462Z,36.43
2023-05-21T23:30:01.963Z,36.48
2023-05-21T23:32:05.139Z,36.61
2023-05-21T23:34:07.015Z,36.25
2023-05-21T23:36:08.604Z,36.49
2023-05-21T23:38:10.254Z,36.23
2023-05-21T23:40:12.418Z,36.03
2023-05-21T23:42:14.288Z,36.27
2023-05-21T23:44:16.180Z,36.21
2023-05-21T23:46:17.827Z,36.16
2023-05-21T23:48:19.422Z,35.86
2023-05-21T23:50:21.318Z,35.84
2023-05-21T23:52:24.116Z,36.00
2023-05-21T23:54:25.806Z,36.03
2023-05-21T23:56:27.361Z,35.94
2023-05-21T23:58:28.887Z,36.06
